sensor_id;sensor_type;location;lat;lon;timestamp;temperature;humidity
18041;DHT22;9145;48.588;9.250;2024-01-25T00:02:09;9.10;99.90
18041;DHT22;9145;48.588;9.250;2024-01-25T00:04:36;9.10;99.90
18041;DHT22;9145;48.588;9.250;2024-01-25T00:07:04;9.10;99.90
18041;DHT22;9145;48.588;9.250;2024-01-25T00:09:31;9.10;99.90
18041;DHT22;9145;48.588;9.250;2024-01-25T00:11:58;9.10;99.90
18041;DHT22;9145;48.588;9.250;2024-01-25T00:14:24;9.20;99.90
18041;DHT22;9145;48.588;9.250;2024-01-25T00:16:51;9.20;99.90
18041;DHT22;9145;48.588;9.250;2024-01-25T00:19:18;9.10;99.90
18041;DHT22;9145;48.588;9.250;2024-01-25T00:21:45;9.20;99.90
18041;DHT22;9145;48.588;9.250;2024-01-25T00:24:13;9.20;99.90
18041;DHT22;9145;48.588;9.250;2024-01-25T00:26:40;9.20;99.90
18041;DHT22;9145;48.588;9.250;2024-01-25T00:29:07;9.20;99.90
18041;DHT22;9145;48.588;9.250;2024-01-25T00:31:34;9.30;99.90
18041;DHT22;9145;48.588;9.250;2024-01-25T00:34:02;9.30;99.90
18041;DHT22;9145;48.588;9.250;2024-01-25T00:36:29;9.20;99.90
18041;DHT22;9145;48.588;9.250;2024-01-25T00:38:57;9.20;99.90
18041;DHT22;9145;48.588;9.250;2024-01-25T00:41:25;9.20;99.90
18041;DHT22;9145;48.588;9.250;2024-01-25T00:43:52;9.10;99.90
18041;DHT22;9145;48.588;9.250;2024-01-25T00:46:19;9.10;99.90
18041;DHT22;9145;48.588;9.250;2024-01-25T00:48:47;9.10;99.90
18041;DHT22;9145;48.588;9.250;2024-01-25T00:51:15;9.10;99.90
18041;DHT22;9145;48.588;9.250;2024-01-25T00:53:46;9.10;99.90
18041;DHT22;9145;48.588;9.250;2024-01-25T00:56:13;9.10;99.90
18041;DHT22;9145;48.588;9.250;2024-01-25T00:58:42;9.10;99.90
18041;DHT22;9145;48.588;9.250;2024-01-25T01:01:10;9.10;99.90
18041;DHT22;9145;48.588;9.250;2024-01-25T01:03:37;9.10;99.90
18041;DHT22;9145;48.588;9.250;2024-01-25T01:06:05;9.10;99.90
18041;DHT22;9145;48.588;9.250;2024-01-25T01:08:32;9.10;99.90
18041;DHT22;9145;48.588;9.250;2024-01-25T01:10:59;9.10;99.90
18041;DHT22;9145;48.588;9.250;2024-01-25T01:13:26;9.10;99.90
18041;DHT22;9145;48.588;9.250;2024-01-25T01:15:54;9.10;99.90
18041;DHT22;9145;48.588;9.250;2024-01-25T01:18:21;9.10;99.90
18041;DHT22;9145;48.588;9.250;2024-01-25T01:20:48;9.10;99.90
18041;DHT22;9145;48.588;9.250;2024-01-25T01:23:14;9.10;99.90
18041;DHT22;9145;48.588;9.250;2024-01-25T01:25:41;9.10;99.90
18041;DHT22;9145;48.588;9.250;2024-01-25T01:28:08;9.20;99.90
18041;DHT22;9145;48.588;9.250;2024-01-25T01:30:35;9.20;99.90
18041;DHT22;9145;48.588;9.250;2024-01-25T01:33:03;9.20;99.90
18041;DHT22;9145;48.588;9.250;2024-01-25T01:35:30;9.20;99.90
18041;DHT22;9145;48.588;9.250;2024-01-25T01:37:57;9.20;99.90
18041;DHT22;9145;48.588;9.250;2024-01-25T01:40:24;9.20;99.90
18041;DHT22;9145;48.588;9.250;2024-01-25T01:42:50;9.20;99.90
18041;DHT22;9145;48.588;9.250;2024-01-25T01:45:17;9.20;99.90
18041;DHT22;9145;48.588;9.250;2024-01-25T01:47:44;9.20;99.90
18041;DHT22;9145;48.588;9.250;2024-01-25T01:50:12;9.10;99.90
18041;DHT22;9145;48.588;9.250;2024-01-25T01:52:39;9.10;99.90
18041;DHT22;9145;48.588;9.250;2024-01-25T01:55:07;9.10;99.90
18041;DHT22;9145;48.588;9.250;2024-01-25T01:57:34;9.10;99.90
18041;DHT22;9145;48.588;9.250;2024-01-25T02:00:03;9.10;99.90
18041;DHT22;9145;48.588;9.250;2024-01-25T02:02:31;9.00;99.90
18041;DHT22;9145;48.588;9.250;2024-01-25T02:04:57;9.00;99.90
18041;DHT22;9145;48.588;9.250;2024-01-25T02:07:26;9.00;99.90
18041;DHT22;9145;48.588;9.250;2024-01-25T02:09:53;9.00;99.90
18041;DHT22;9145;48.588;9.250;2024-01-25T02:12:19;9.00;99.90
18041;DHT22;9145;48.588;9.250;2024-01-25T02:14:46;9.00;99.90
18041;DHT22;9145;48.588;9.250;2024-01-25T02:17:13;9.00;99.90
18041;DHT22;9145;48.588;9.250;2024-01-25T02:19:40;9.10;99.90
18041;DHT22;9145;48.588;9.250;2024-01-25T02:22:07;9.10;99.90
18041;DHT22;9145;48.588;9.250;2024-01-25T02:24:35;9.10;99.90
18041;DHT22;9145;48.588;9.250;2024-01-25T02:27:01;9.10;99.90
18041;DHT22;9145;48.588;9.250;2024-01-25T02:29:30;9.10;99.90
18041;DHT22;9145;48.588;9.250;2024-01-25T02:31:57;9.20;99.90
18041;DHT22;9145;48.588;9.250;2024-01-25T02:34:24;9.10;99.90
18041;DHT22;9145;48.588;9.250;2024-01-25T02:36:51;9.10;99.90
18041;DHT22;9145;48.588;9.250;2024-01-25T02:39:17;9.10;99.90
18041;DHT22;9145;48.588;9.250;2024-01-25T02:41:45;9.20;99.90
18041;DHT22;9145;48.588;9.250;2024-01-25T02:44:13;9.20;99.90
18041;DHT22;9145;48.588;9.250;2024-01-25T02:46:39;9.20;99.90
18041;DHT22;9145;48.588;9.250;2024-01-25T02:49:05;9.20;99.90
18041;DHT22;9145;48.588;9.250;2024-01-25T02:51:32;9.20;99.90
18041;DHT22;9145;48.588;9.250;2024-01-25T02:53:59;9.20;99.90
18041;DHT22;9145;48.588;9.250;2024-01-25T02:56:26;9.10;99.90
18041;DHT22;9145;48.588;9.250;2024-01-25T02:59:00;9.10;99.90
18041;DHT22;9145;48.588;9.250;2024-01-25T03:01:27;9.10;99.90
18041;DHT22;9145;48.588;9.250;2024-01-25T03:03:54;9.10;99.90
18041;DHT22;9145;48.588;9.250;2024-01-25T03:06:21;9.10;99.90
18041;DHT22;9145;48.588;9.250;2024-01-25T03:08:47;9.10;99.90
18041;DHT22;9145;48.588;9.250;2024-01-25T03:11:14;9.10;99.90
18041;DHT22;9145;48.588;9.250;2024-01-25T03:13:41;9.00;99.90
18041;DHT22;9145;48.588;9.250;2024-01-25T03:16:09;9.00;99.90
18041;DHT22;9145;48.588;9.250;2024-01-25T03:18:36;9.00;99.90
18041;DHT22;9145;48.588;9.250;2024-01-25T03:21:03;9.00;99.90
18041;DHT22;9145;48.588;9.250;2024-01-25T03:23:29;9.00;99.90
18041;DHT22;9145;48.588;9.250;2024-01-25T03:25:56;9.00;99.90
18041;DHT22;9145;48.588;9.250;2024-01-25T03:28:23;9.00;99.90
18041;DHT22;9145;48.588;9.250;2024-01-25T03:30:50;9.00;99.90
18041;DHT22;9145;48.588;9.250;2024-01-25T03:33:18;9.00;99.90
18041;DHT22;9145;48.588;9.250;2024-01-25T03:35:45;9.00;99.90
18041;DHT22;9145;48.588;9.250;2024-01-25T03:38:11;8.90;99.90
18041;DHT22;9145;48.588;9.250;2024-01-25T03:40:39;8.90;99.90
18041;DHT22;9145;48.588;9.250;2024-01-25T03:43:06;8.90;99.90
18041;DHT22;9145;48.588;9.250;2024-01-25T03:45:33;8.90;99.90
18041;DHT22;9145;48.588;9.250;2024-01-25T03:47:59;9.00;99.90
18041;DHT22;9145;48.588;9.250;2024-01-25T03:50:28;8.90;99.90
18041;DHT22;9145;48.588;9.250;2024-01-25T03:52:54;8.90;99.90
18041;DHT22;9145;48.588;9.250;2024-01-25T03:55:21;8.90;99.90
18041;DHT22;9145;48.588;9.250;2024-01-25T03:57:48;8.90;99.90
18041;DHT22;9145;48.588;9.250;2024-01-25T04:00:15;8.90;99.90
18041;DHT22;9145;48.588;9.250;2024-01-25T04:02:42;8.90;99.90
18041;DHT22;9145;48.588;9.250;2024-01-25T04:05:09;8.90;99.90
18041;DHT22;9145;48.588;9.250;2024-01-25T04:07:37;8.90;99.90
18041;DHT22;9145;48.588;9.250;2024-01-25T04:10:04;8.90;99.90
18041;DHT22;9145;48.588;9.250;2024-01-25T04:12:32;8.90;99.90
18041;DHT22;9145;48.588;9.250;2024-01-25T04:14:59;8.90;99.90
18041;DHT22;9145;48.588;9.250;2024-01-25T04:17:26;8.90;99.90
18041;DHT22;9145;48.588;9.250;2024-01-25T04:19:52;8.90;99.90
18041;DHT22;9145;48.588;9.250;2024-01-25T04:22:19;8.90;99.90
18041;DHT22;9145;48.588;9.250;2024-01-25T04:24:47;8.90;99.90
18041;DHT22;9145;48.588;9.250;2024-01-25T04:27:15;8.90;99.90
18041;DHT22;9145;48.588;9.250;2024-01-25T04:29:42;8.90;99.90
18041;DHT22;9145;48.588;9.250;2024-01-25T04:32:09;8.80;99.90
18041;DHT22;9145;48.588;9.250;2024-01-25T04:34:36;8.80;99.90
18041;DHT22;9145;48.588;9.250;2024-01-25T04:37:03;8.80;99.90
18041;DHT22;9145;48.588;9.250;2024-01-25T04:39:30;8.80;99.90
18041;DHT22;9145;48.588;9.250;2024-01-25T04:41:58;8.80;99.90
18041;DHT22;9145;48.588;9.250;2024-01-25T04:44:25;8.80;99.90
18041;DHT22;9145;48.588;9.250;2024-01-25T04:46:52;8.80;99.90
18041;DHT22;9145;48.588;9.250;2024-01-25T04:49:19;8.70;99.90
18041;DHT22;9145;48.588;9.250;2024-01-25T04:51:46;8.70;99.90
18041;DHT22;9145;48.588;9.250;2024-01-25T04:54:13;8.70;99.90
18041;DHT22;9145;48.588;9.250;2024-01-25T04:56:41;8.70;99.90
18041;DHT22;9145;48.588;9.250;2024-01-25T04:59:09;8.70;99.90
18041;DHT22;9145;48.588;9.250;2024-01-25T05:01:36;8.70;99.90
18041;DHT22;9145;48.588;9.250;2024-01-25T05:04:03;8.80;99.90
18041;DHT22;9145;48.588;9.250;2024-01-25T05:06:30;8.70;99.90
18041;DHT22;9145;48.588;9.250;2024-01-25T05:08:56;8.80;99.90
18041;DHT22;9145;48.588;9.250;2024-01-25T05:11:23;8.80;99.90
18041;DHT22;9145;48.588;9.250;2024-01-25T05:13:50;8.80;99.90
18041;DHT22;9145;48.588;9.250;2024-01-25T05:16:18;8.80;99.90
18041;DHT22;9145;48.588;9.250;2024-01-25T05:18:44;8.80;99.90
18041;DHT22;9145;48.588;9.250;2024-01-25T05:21:11;8.80;99.90
18041;DHT22;9145;48.588;9.250;2024-01-25T05:23:37;8.70;99.90
18041;DHT22;9145;48.588;9.250;2024-01-25T05:26:06;8.70;99.90
18041;DHT22;9145;48.588;9.250;2024-01-25T05:28:32;8.70;99.90
18041;DHT22;9145;48.588;9.250;2024-01-25T05:30:59;8.70;99.90
18041;DHT22;9145;48.588;9.250;2024-01-25T05:33:27;8.70;99.90
18041;DHT22;9145;48.588;9.250;2024-01-25T05:35:54;8.70;99.90
18041;DHT22;9145;48.588;9.250;2024-01-25T05:38:21;8.70;99.90
18041;DHT22;9145;48.588;9.250;2024-01-25T05:40:48;8.60;99.90
18041;DHT22;9145;48.588;9.250;2024-01-25T05:43:14;8.70;99.90
18041;DHT22;9145;48.588;9.250;2024-01-25T05:45:41;8.60;99.90
18041;DHT22;9145;48.588;9.250;2024-01-25T05:48:08;8.60;99.90
18041;DHT22;9145;48.588;9.250;2024-01-25T05:50:37;8.60;99.90
18041;DHT22;9145;48.588;9.250;2024-01-25T05:53:03;8.50;99.90
18041;DHT22;9145;48.588;9.250;2024-01-25T05:55:30;8.50;99.90
18041;DHT22;9145;48.588;9.250;2024-01-25T05:57:57;8.50;99.90
18041;DHT22;9145;48.588;9.250;2024-01-25T06:00:24;8.50;99.90
18041;DHT22;9145;48.588;9.250;2024-01-25T06:02:51;8.50;99.90
18041;DHT22;9145;48.588;9.250;2024-01-25T06:05:17;8.50;99.90
18041;DHT22;9145;48.588;9.250;2024-01-25T06:07:46;8.50;99.90
18041;DHT22;9145;48.588;9.250;2024-01-25T06:10:14;8.50;99.90
18041;DHT22;9145;48.588;9.250;2024-01-25T06:12:41;8.50;99.90
18041;DHT22;9145;48.588;9.250;2024-01-25T06:15:08;8.50;99.90
18041;DHT22;9145;48.588;9.250;2024-01-25T06:17:35;8.50;99.90
18041;DHT22;9145;48.588;9.250;2024-01-25T06:20:03;8.40;99.90
18041;DHT22;9145;48.588;9.250;2024-01-25T06:22:30;8.40;99.90
18041;DHT22;9145;48.588;9.250;2024-01-25T06:24:58;8.30;99.90
18041;DHT22;9145;48.588;9.250;2024-01-25T06:27:25;8.20;99.90
18041;DHT22;9145;48.588;9.250;2024-01-25T06:29:52;8.20;99.90
18041;DHT22;9145;48.588;9.250;2024-01-25T06:32:18;8.10;99.90
18041;DHT22;9145;48.588;9.250;2024-01-25T06:34:45;8.10;99.90
18041;DHT22;9145;48.588;9.250;2024-01-25T06:37:12;8.00;99.90
18041;DHT22;9145;48.588;9.250;2024-01-25T06:39:40;8.00;99.90
18041;DHT22;9145;48.588;9.250;2024-01-25T06:42:08;7.90;99.90
18041;DHT22;9145;48.588;9.250;2024-01-25T06:44:35;8.00;99.90
18041;DHT22;9145;48.588;9.250;2024-01-25T06:47:03;8.00;99.90
18041;DHT22;9145;48.588;9.250;2024-01-25T06:49:30;8.00;99.90
18041;DHT22;9145;48.588;9.250;2024-01-25T06:51:57;7.90;99.90
18041;DHT22;9145;48.588;9.250;2024-01-25T06:54:24;7.90;99.90
18041;DHT22;9145;48.588;9.250;2024-01-25T06:56:50;7.90;99.90
18041;DHT22;9145;48.588;9.250;2024-01-25T06:59:19;7.90;99.90
18041;DHT22;9145;48.588;9.250;2024-01-25T07:01:46;7.80;99.90
18041;DHT22;9145;48.588;9.250;2024-01-25T07:04:12;7.70;99.90
18041;DHT22;9145;48.588;9.250;2024-01-25T07:06:40;7.70;99.90
18041;DHT22;9145;48.588;9.250;2024-01-25T07:09:06;7.60;99.90
18041;DHT22;9145;48.588;9.250;2024-01-25T07:11:34;7.60;99.90
18041;DHT22;9145;48.588;9.250;2024-01-25T07:14:00;7.60;99.90
18041;DHT22;9145;48.588;9.250;2024-01-25T07:16:28;7.50;99.90
18041;DHT22;9145;48.588;9.250;2024-01-25T07:18:56;7.50;99.90
18041;DHT22;9145;48.588;9.250;2024-01-25T07:21:23;7.50;99.90
18041;DHT22;9145;48.588;9.250;2024-01-25T07:23:50;7.60;99.90
18041;DHT22;9145;48.588;9.250;2024-01-25T07:26:17;7.60;99.90
18041;DHT22;9145;48.588;9.250;2024-01-25T07:28:44;7.60;99.90
18041;DHT22;9145;48.588;9.250;2024-01-25T07:31:11;7.70;99.90
18041;DHT22;9145;48.588;9.250;2024-01-25T07:33:39;7.70;99.90
18041;DHT22;9145;48.588;9.250;2024-01-25T07:36:06;7.80;99.90
18041;DHT22;9145;48.588;9.250;2024-01-25T07:38:33;7.70;99.90
18041;DHT22;9145;48.588;9.250;2024-01-25T07:41:00;7.80;99.90
18041;DHT22;9145;48.588;9.250;2024-01-25T07:43:27;7.80;99.90
18041;DHT22;9145;48.588;9.250;2024-01-25T07:45:54;7.80;99.90
18041;DHT22;9145;48.588;9.250;2024-01-25T07:48:20;7.80;99.90
18041;DHT22;9145;48.588;9.250;2024-01-25T07:50:49;7.80;99.90
18041;DHT22;9145;48.588;9.250;2024-01-25T07:53:15;7.80;99.90
18041;DHT22;9145;48.588;9.250;2024-01-25T07:55:43;7.80;99.90
18041;DHT22;9145;48.588;9.250;2024-01-25T07:58:10;7.80;99.90
18041;DHT22;9145;48.588;9.250;2024-01-25T08:00:37;7.70;99.90
18041;DHT22;9145;48.588;9.250;2024-01-25T08:03:04;7.70;99.90
18041;DHT22;9145;48.588;9.250;2024-01-25T08:05:31;7.60;99.90
18041;DHT22;9145;48.588;9.250;2024-01-25T08:08:00;7.60;99.90
18041;DHT22;9145;48.588;9.250;2024-01-25T08:10:26;7.60;99.90
18041;DHT22;9145;48.588;9.250;2024-01-25T08:12:53;7.60;99.90
18041;DHT22;9145;48.588;9.250;2024-01-25T08:15:20;7.60;99.90
18041;DHT22;9145;48.588;9.250;2024-01-25T08:17:47;7.60;99.90
18041;DHT22;9145;48.588;9.250;2024-01-25T08:20:13;7.60;99.90
18041;DHT22;9145;48.588;9.250;2024-01-25T08:22:40;7.70;99.90
18041;DHT22;9145;48.588;9.250;2024-01-25T08:25:09;7.70;99.90
18041;DHT22;9145;48.588;9.250;2024-01-25T08:27:37;7.70;99.90
18041;DHT22;9145;48.588;9.250;2024-01-25T08:30:04;7.70;99.90
18041;DHT22;9145;48.588;9.250;2024-01-25T08:32:31;7.80;99.90
18041;DHT22;9145;48.588;9.250;2024-01-25T08:34:58;7.90;99.90
18041;DHT22;9145;48.588;9.250;2024-01-25T08:37:25;8.00;99.90
18041;DHT22;9145;48.588;9.250;2024-01-25T08:39:52;8.10;99.90
18041;DHT22;9145;48.588;9.250;2024-01-25T08:42:20;8.10;99.90
18041;DHT22;9145;48.588;9.250;2024-01-25T08:44:47;8.20;99.90
18041;DHT22;9145;48.588;9.250;2024-01-25T08:47:15;8.10;99.90
18041;DHT22;9145;48.588;9.250;2024-01-25T08:49:42;8.10;99.90
18041;DHT22;9145;48.588;9.250;2024-01-25T08:52:09;8.10;99.90
18041;DHT22;9145;48.588;9.250;2024-01-25T08:54:36;8.10;99.90
18041;DHT22;9145;48.588;9.250;2024-01-25T08:57:04;8.10;99.90
18041;DHT22;9145;48.588;9.250;2024-01-25T08:59:32;8.20;99.90
18041;DHT22;9145;48.588;9.250;2024-01-25T09:02:00;8.20;99.90
18041;DHT22;9145;48.588;9.250;2024-01-25T09:04:27;8.30;99.90
18041;DHT22;9145;48.588;9.250;2024-01-25T09:06:54;8.40;99.90
18041;DHT22;9145;48.588;9.250;2024-01-25T09:09:21;8.50;99.90
18041;DHT22;9145;48.588;9.250;2024-01-25T09:11:48;8.60;99.90
18041;DHT22;9145;48.588;9.250;2024-01-25T09:14:15;8.70;99.90
18041;DHT22;9145;48.588;9.250;2024-01-25T09:16:43;8.80;99.90
18041;DHT22;9145;48.588;9.250;2024-01-25T09:19:10;8.90;99.90
18041;DHT22;9145;48.588;9.250;2024-01-25T09:21:38;8.90;99.90
18041;DHT22;9145;48.588;9.250;2024-01-25T09:24:05;9.00;99.90
18041;DHT22;9145;48.588;9.250;2024-01-25T09:26:32;9.10;99.90
18041;DHT22;9145;48.588;9.250;2024-01-25T09:28:59;9.20;99.90
18041;DHT22;9145;48.588;9.250;2024-01-25T09:31:26;9.30;99.90
18041;DHT22;9145;48.588;9.250;2024-01-25T09:33:54;9.40;99.90
18041;DHT22;9145;48.588;9.250;2024-01-25T09:36:21;9.50;99.90
18041;DHT22;9145;48.588;9.250;2024-01-25T09:38:48;9.50;99.90
18041;DHT22;9145;48.588;9.250;2024-01-25T09:41:14;9.60;99.90
18041;DHT22;9145;48.588;9.250;2024-01-25T09:43:41;9.70;99.90
18041;DHT22;9145;48.588;9.250;2024-01-25T09:46:13;9.70;99.90
18041;DHT22;9145;48.588;9.250;2024-01-25T09:48:41;9.70;99.90
18041;DHT22;9145;48.588;9.250;2024-01-25T09:51:11;9.80;99.90
18041;DHT22;9145;48.588;9.250;2024-01-25T09:53:39;9.90;99.90
18041;DHT22;9145;48.588;9.250;2024-01-25T09:56:08;10.00;99.90
18041;DHT22;9145;48.588;9.250;2024-01-25T09:58:38;10.10;99.90
18041;DHT22;9145;48.588;9.250;2024-01-25T10:01:08;10.20;99.90
18041;DHT22;9145;48.588;9.250;2024-01-25T10:03:36;10.20;99.90
18041;DHT22;9145;48.588;9.250;2024-01-25T10:06:05;10.40;99.90
18041;DHT22;9145;48.588;9.250;2024-01-25T10:08:34;10.50;99.90
18041;DHT22;9145;48.588;9.250;2024-01-25T10:11:01;10.40;99.90
18041;DHT22;9145;48.588;9.250;2024-01-25T10:13:28;10.30;99.90
18041;DHT22;9145;48.588;9.250;2024-01-25T10:15:54;10.50;99.90
18041;DHT22;9145;48.588;9.250;2024-01-25T10:18:22;10.40;99.90
18041;DHT22;9145;48.588;9.250;2024-01-25T10:20:49;10.30;99.90
18041;DHT22;9145;48.588;9.250;2024-01-25T10:23:16;10.30;99.90
18041;DHT22;9145;48.588;9.250;2024-01-25T10:25:44;10.40;99.90
18041;DHT22;9145;48.588;9.250;2024-01-25T10:28:12;10.30;99.90
18041;DHT22;9145;48.588;9.250;2024-01-25T10:30:39;10.20;99.90
18041;DHT22;9145;48.588;9.250;2024-01-25T10:33:06;10.20;99.90
18041;DHT22;9145;48.588;9.250;2024-01-25T10:35:34;10.20;99.90
18041;DHT22;9145;48.588;9.250;2024-01-25T10:38:04;10.20;99.90
18041;DHT22;9145;48.588;9.250;2024-01-25T10:40:30;10.10;99.90
18041;DHT22;9145;48.588;9.250;2024-01-25T10:42:58;10.10;99.90
18041;DHT22;9145;48.588;9.250;2024-01-25T10:45:25;10.20;99.90
18041;DHT22;9145;48.588;9.250;2024-01-25T10:47:52;10.20;99.90
18041;DHT22;9145;48.588;9.250;2024-01-25T10:50:19;10.40;99.90
18041;DHT22;9145;48.588;9.250;2024-01-25T10:52:46;10.60;99.90
18041;DHT22;9145;48.588;9.250;2024-01-25T10:55:14;10.90;99.90
18041;DHT22;9145;48.588;9.250;2024-01-25T10:57:43;11.20;99.90
18041;DHT22;9145;48.588;9.250;2024-01-25T11:00:13;11.20;99.90
18041;DHT22;9145;48.588;9.250;2024-01-25T11:02:41;11.40;99.90
18041;DHT22;9145;48.588;9.250;2024-01-25T11:05:10;11.30;99.90
18041;DHT22;9145;48.588;9.250;2024-01-25T11:07:47;11.30;99.90
18041;DHT22;9145;48.588;9.250;2024-01-25T11:10:16;11.20;99.90
18041;DHT22;9145;48.588;9.250;2024-01-25T11:12:49;11.00;99.90
18041;DHT22;9145;48.588;9.250;2024-01-25T11:15:22;10.80;99.90
18041;DHT22;9145;48.588;9.250;2024-01-25T11:17:53;10.70;99.90
18041;DHT22;9145;48.588;9.250;2024-01-25T11:20:21;10.60;99.90
18041;DHT22;9145;48.588;9.250;2024-01-25T11:22:48;10.70;99.90
18041;DHT22;9145;48.588;9.250;2024-01-25T11:25:21;10.70;99.90
18041;DHT22;9145;48.588;9.250;2024-01-25T11:27:48;10.70;99.90
18041;DHT22;9145;48.588;9.250;2024-01-25T11:30:18;10.60;99.90
18041;DHT22;9145;48.588;9.250;2024-01-25T11:32:47;10.60;99.90
18041;DHT22;9145;48.588;9.250;2024-01-25T11:35:14;10.60;99.90
18041;DHT22;9145;48.588;9.250;2024-01-25T11:37:43;10.50;99.90
18041;DHT22;9145;48.588;9.250;2024-01-25T11:40:11;10.50;99.90
18041;DHT22;9145;48.588;9.250;2024-01-25T11:42:38;10.70;99.90
18041;DHT22;9145;48.588;9.250;2024-01-25T11:45:06;10.90;99.90
18041;DHT22;9145;48.588;9.250;2024-01-25T11:47:34;11.20;99.90
18041;DHT22;9145;48.588;9.250;2024-01-25T11:50:02;11.50;99.90
18041;DHT22;9145;48.588;9.250;2024-01-25T11:52:29;11.60;99.90
18041;DHT22;9145;48.588;9.250;2024-01-25T11:54:58;11.90;99.90
18041;DHT22;9145;48.588;9.250;2024-01-25T11:57:25;11.90;99.90
18041;DHT22;9145;48.588;9.250;2024-01-25T11:59:52;11.90;99.90
18041;DHT22;9145;48.588;9.250;2024-01-25T12:02:19;11.90;99.90
18041;DHT22;9145;48.588;9.250;2024-01-25T12:04:46;11.90;99.90
18041;DHT22;9145;48.588;9.250;2024-01-25T12:07:15;12.00;99.90
18041;DHT22;9145;48.588;9.250;2024-01-25T12:09:42;12.00;99.90
18041;DHT22;9145;48.588;9.250;2024-01-25T12:12:09;12.20;99.90
18041;DHT22;9145;48.588;9.250;2024-01-25T12:14:37;12.40;99.90
18041;DHT22;9145;48.588;9.250;2024-01-25T12:17:06;12.50;99.90
18041;DHT22;9145;48.588;9.250;2024-01-25T12:19:34;12.60;99.90
18041;DHT22;9145;48.588;9.250;2024-01-25T12:22:00;12.70;99.90
18041;DHT22;9145;48.588;9.250;2024-01-25T12:24:31;12.70;99.90
18041;DHT22;9145;48.588;9.250;2024-01-25T12:26:57;12.80;99.90
18041;DHT22;9145;48.588;9.250;2024-01-25T12:29:25;12.70;99.90
18041;DHT22;9145;48.588;9.250;2024-01-25T12:31:52;12.50;99.90
18041;DHT22;9145;48.588;9.250;2024-01-25T12:34:19;12.40;99.90
18041;DHT22;9145;48.588;9.250;2024-01-25T12:36:45;12.40;99.90
18041;DHT22;9145;48.588;9.250;2024-01-25T12:39:12;12.30;99.90
18041;DHT22;9145;48.588;9.250;2024-01-25T12:41:41;12.50;99.90
18041;DHT22;9145;48.588;9.250;2024-01-25T12:44:08;12.60;99.90
18041;DHT22;9145;48.588;9.250;2024-01-25T12:46:35;12.70;99.90
18041;DHT22;9145;48.588;9.250;2024-01-25T12:49:02;12.90;99.90
18041;DHT22;9145;48.588;9.250;2024-01-25T12:51:29;13.00;99.90
18041;DHT22;9145;48.588;9.250;2024-01-25T12:53:56;13.20;99.90
18041;DHT22;9145;48.588;9.250;2024-01-25T12:56:23;13.20;99.90
18041;DHT22;9145;48.588;9.250;2024-01-25T12:58:52;13.10;99.90
18041;DHT22;9145;48.588;9.250;2024-01-25T13:01:19;13.00;99.90
18041;DHT22;9145;48.588;9.250;2024-01-25T13:03:46;13.00;99.90
18041;DHT22;9145;48.588;9.250;2024-01-25T13:06:13;12.90;99.90
18041;DHT22;9145;48.588;9.250;2024-01-25T13:08:41;13.10;99.90
18041;DHT22;9145;48.588;9.250;2024-01-25T13:11:07;13.40;99.90
18041;DHT22;9145;48.588;9.250;2024-01-25T13:13:34;13.60;99.90
18041;DHT22;9145;48.588;9.250;2024-01-25T13:16:03;13.60;99.90
18041;DHT22;9145;48.588;9.250;2024-01-25T13:18:30;13.70;99.90
18041;DHT22;9145;48.588;9.250;2024-01-25T13:20:57;13.90;99.90
18041;DHT22;9145;48.588;9.250;2024-01-25T13:23:23;13.90;99.90
18041;DHT22;9145;48.588;9.250;2024-01-25T13:25:50;13.90;99.90
18041;DHT22;9145;48.588;9.250;2024-01-25T13:28:17;14.00;99.90
18041;DHT22;9145;48.588;9.250;2024-01-25T13:30:44;14.10;99.90
18041;DHT22;9145;48.588;9.250;2024-01-25T13:33:12;14.10;99.90
18041;DHT22;9145;48.588;9.250;2024-01-25T13:35:39;14.00;99.90
18041;DHT22;9145;48.588;9.250;2024-01-25T13:38:06;13.90;99.90
18041;DHT22;9145;48.588;9.250;2024-01-25T13:40:32;14.10;99.90
18041;DHT22;9145;48.588;9.250;2024-01-25T13:42:59;14.20;99.90
18041;DHT22;9145;48.588;9.250;2024-01-25T13:45:26;14.00;99.90
18041;DHT22;9145;48.588;9.250;2024-01-25T13:47:53;13.90;99.90
18041;DHT22;9145;48.588;9.250;2024-01-25T13:50:21;13.70;99.90
18041;DHT22;9145;48.588;9.250;2024-01-25T13:52:48;13.60;99.90
18041;DHT22;9145;48.588;9.250;2024-01-25T13:55:14;13.40;99.90
18041;DHT22;9145;48.588;9.250;2024-01-25T13:57:41;13.10;99.90
18041;DHT22;9145;48.588;9.250;2024-01-25T14:00:09;13.00;99.90
18041;DHT22;9145;48.588;9.250;2024-01-25T14:02:36;13.00;99.90
18041;DHT22;9145;48.588;9.250;2024-01-25T14:05:05;13.00;99.90
18041;DHT22;9145;48.588;9.250;2024-01-25T14:07:33;13.00;99.90
18041;DHT22;9145;48.588;9.250;2024-01-25T14:10:00;12.90;99.90
18041;DHT22;9145;48.588;9.250;2024-01-25T14:12:27;13.00;99.90
18041;DHT22;9145;48.588;9.250;2024-01-25T14:14:53;13.10;99.90
18041;DHT22;9145;48.588;9.250;2024-01-25T14:17:20;13.10;99.90
18041;DHT22;9145;48.588;9.250;2024-01-25T14:19:48;12.90;99.90
18041;DHT22;9145;48.588;9.250;2024-01-25T14:22:15;13.00;99.90
18041;DHT22;9145;48.588;9.250;2024-01-25T14:24:43;13.00;99.90
18041;DHT22;9145;48.588;9.250;2024-01-25T14:27:10;12.90;99.90
18041;DHT22;9145;48.588;9.250;2024-01-25T14:29:37;12.80;99.90
18041;DHT22;9145;48.588;9.250;2024-01-25T14:32:04;12.60;99.90
18041;DHT22;9145;48.588;9.250;2024-01-25T14:34:31;12.30;99.90
18041;DHT22;9145;48.588;9.250;2024-01-25T14:36:58;12.20;99.90
18041;DHT22;9145;48.588;9.250;2024-01-25T14:39:24;12.10;99.90
18041;DHT22;9145;48.588;9.250;2024-01-25T14:41:53;12.00;99.90
18041;DHT22;9145;48.588;9.250;2024-01-25T14:44:20;11.90;99.90
18041;DHT22;9145;48.588;9.250;2024-01-25T14:46:47;11.80;99.90
18041;DHT22;9145;48.588;9.250;2024-01-25T14:49:13;11.70;99.90
18041;DHT22;9145;48.588;9.250;2024-01-25T14:51:40;11.60;99.90
18041;DHT22;9145;48.588;9.250;2024-01-25T14:54:07;11.60;99.90
18041;DHT22;9145;48.588;9.250;2024-01-25T14:56:36;11.60;99.90
18041;DHT22;9145;48.588;9.250;2024-01-25T14:59:04;11.60;99.90
18041;DHT22;9145;48.588;9.250;2024-01-25T15:01:31;11.50;99.90
18041;DHT22;9145;48.588;9.250;2024-01-25T15:03:58;11.40;99.90
18041;DHT22;9145;48.588;9.250;2024-01-25T15:06:26;11.30;99.90
18041;DHT22;9145;48.588;9.250;2024-01-25T15:08:53;11.30;99.90
18041;DHT22;9145;48.588;9.250;2024-01-25T15:11:20;11.30;99.90
18041;DHT22;9145;48.588;9.250;2024-01-25T15:13:48;11.20;99.90
18041;DHT22;9145;48.588;9.250;2024-01-25T15:16:16;11.20;99.90
18041;DHT22;9145;48.588;9.250;2024-01-25T15:18:43;11.20;99.90
18041;DHT22;9145;48.588;9.250;2024-01-25T15:21:10;11.20;99.90
18041;DHT22;9145;48.588;9.250;2024-01-25T15:23:36;11.20;99.90
18041;DHT22;9145;48.588;9.250;2024-01-25T15:26:04;11.20;99.90
18041;DHT22;9145;48.588;9.250;2024-01-25T15:28:30;11.20;99.90
18041;DHT22;9145;48.588;9.250;2024-01-25T15:30:57;11.10;99.90
18041;DHT22;9145;48.588;9.250;2024-01-25T15:33:25;11.10;99.90
18041;DHT22;9145;48.588;9.250;2024-01-25T15:35:53;11.10;99.90
18041;DHT22;9145;48.588;9.250;2024-01-25T15:38:21;11.10;99.90
18041;DHT22;9145;48.588;9.250;2024-01-25T15:40:47;11.10;99.90
18041;DHT22;9145;48.588;9.250;2024-01-25T15:43:16;11.10;99.90
18041;DHT22;9145;48.588;9.250;2024-01-25T15:45:42;11.10;99.90
18041;DHT22;9145;48.588;9.250;2024-01-25T15:48:09;11.10;99.90
18041;DHT22;9145;48.588;9.250;2024-01-25T15:50:38;11.10;99.90
18041;DHT22;9145;48.588;9.250;2024-01-25T15:53:04;11.20;99.90
18041;DHT22;9145;48.588;9.250;2024-01-25T15:55:31;11.10;99.90